createdAt,value
2018-08-12T00:01:36.061Z,1.13
2018-08-12T00:04:03.905Z,1.03
2018-08-12T00:06:31.724Z,1.00
2018-08-12T00:08:59.549Z,0.70
2018-08-12T00:11:27.370Z,0.80
2018-08-12T00:13:55.206Z,1.03
2018-08-12T00:16:23.029Z,1.30
2018-08-12T00:18:50.861Z,0.90
2018-08-12T00:21:18.706Z,1.20
2018-08-12T00:23:46.531Z,1.03
2018-08-12T00:26:14.349Z,1.40
2018-08-12T00:28:42.254Z,1.03
2018-08-12T00:31:10.074Z,1.00
2018-08-12T00:33:37.922Z,1.10
2018-08-12T00:36:05.745Z,1.00
2018-08-12T00:38:33.583Z,1.23
2018-08-12T00:41:01.425Z,1.13
2018-08-12T00:43:29.306Z,1.00
2018-08-12T00:45:57.139Z,1.03
2018-08-12T00:48:24.969Z,1.13
2018-08-12T00:50:52.818Z,1.37
2018-08-12T00:53:20.718Z,1.23
2018-08-12T00:55:48.555Z,1.20
2018-08-12T00:58:16.390Z,1.00
2018-08-12T01:00:44.229Z,1.43
2018-08-12T01:03:12.072Z,1.13
2018-08-12T01:05:39.912Z,1.40
2018-08-12T01:08:07.729Z,1.10
2018-08-12T01:10:35.581Z,1.20
2018-08-12T01:13:03.397Z,1.20
2018-08-12T01:15:31.221Z,1.60
2018-08-12T01:17:59.059Z,0.87
2018-08-12T01:20:26.911Z,1.60
2018-08-12T01:22:54.742Z,1.53
2018-08-12T01:25:22.952Z,1.60
2018-08-12T01:27:50.782Z,1.80
2018-08-12T01:30:20.783Z,1.30
2018-08-12T01:32:48.851Z,1.47
2018-08-12T01:35:17.062Z,1.80
2018-08-12T01:37:45.760Z,1.43
2018-08-12T01:40:14.598Z,1.40
2018-08-12T01:42:42.995Z,1.40
2018-08-12T01:45:11.819Z,1.30
2018-08-12T01:47:39.655Z,1.27
2018-08-12T01:50:08.022Z,1.57
2018-08-12T01:52:35.841Z,1.20
2018-08-12T01:55:04.357Z,1.50
2018-08-12T01:57:32.196Z,1.70
2018-08-12T02:00:00.066Z,1.53
2018-08-12T02:02:27.893Z,1.37
2018-08-12T02:04:55.722Z,1.60
2018-08-12T02:07:23.548Z,1.53
2018-08-12T02:09:51.375Z,1.70
2018-08-12T02:12:19.184Z,1.90
2018-08-12T02:14:47.560Z,1.33
2018-08-12T02:17:15.671Z,2.30
2018-08-12T02:19:43.499Z,2.10
2018-08-12T02:22:11.330Z,1.60
2018-08-12T02:24:39.243Z,1.53
2018-08-12T02:27:07.097Z,1.70
2018-08-12T02:29:34.946Z,1.83
2018-08-12T02:32:02.791Z,1.53
2018-08-12T02:34:30.640Z,2.00
2018-08-12T02:36:58.471Z,1.90
2018-08-12T02:39:26.294Z,1.93
2018-08-12T02:41:54.241Z,1.70
2018-08-12T02:44:22.356Z,1.80
2018-08-12T02:46:50.211Z,1.80
2018-08-12T02:49:18.045Z,2.60
2018-08-12T02:51:45.996Z,2.00
2018-08-12T02:54:13.893Z,2.67
2018-08-12T02:56:41.831Z,1.90
2018-08-12T02:59:09.666Z,2.20
2018-08-12T03:01:37.506Z,2.10
2018-08-12T03:04:05.673Z,2.23
2018-08-12T03:06:33.734Z,1.97
2018-08-12T03:09:01.551Z,1.70
2018-08-12T03:11:29.378Z,2.17
2018-08-12T03:13:57.312Z,2.40
2018-08-12T03:16:25.301Z,1.80
2018-08-12T03:18:53.285Z,2.20
2018-08-12T03:21:21.119Z,2.60
2018-08-12T03:23:48.944Z,2.10
2018-08-12T03:26:16.845Z,2.90
2018-08-12T03:28:44.916Z,2.27
2018-08-12T03:31:12.767Z,2.03
2018-08-12T03:33:40.595Z,2.60
2018-08-12T03:36:08.569Z,1.97
2018-08-12T03:38:36.493Z,2.43
2018-08-12T03:41:04.456Z,2.43
2018-08-12T03:43:32.303Z,2.57
2018-08-12T03:46:00.167Z,2.53
2018-08-12T03:48:28.073Z,2.67
2018-08-12T03:50:56.001Z,2.77
2018-08-12T03:53:23.822Z,2.13
2018-08-12T03:55:51.663Z,2.20
2018-08-12T03:58:19.503Z,2.60
2018-08-12T04:00:47.339Z,2.07
2018-08-12T04:03:15.175Z,2.27
2018-08-12T04:05:43.020Z,2.80
2018-08-12T04:08:10.848Z,2.20
2018-08-12T04:10:38.683Z,3.97
2018-08-12T04:13:06.500Z,2.33
2018-08-12T04:15:34.329Z,2.20
2018-08-12T04:18:02.141Z,2.80
2018-08-12T04:20:29.969Z,1.67
2018-08-12T04:22:57.777Z,2.17
2018-08-12T04:25:25.712Z,1.83
2018-08-12T04:27:53.549Z,1.70
2018-08-12T04:30:21.378Z,1.90
2018-08-12T04:32:49.196Z,1.40
2018-08-12T04:35:17.035Z,1.40
2018-08-12T04:37:44.874Z,1.37
2018-08-12T04:40:12.684Z,1.10
2018-08-12T04:42:40.508Z,1.20
2018-08-12T04:45:08.354Z,1.20
2018-08-12T04:47:36.396Z,1.20
2018-08-12T04:50:04.541Z,1.23
2018-08-12T04:52:32.373Z,1.00
2018-08-12T04:55:00.194Z,1.50
2018-08-12T04:57:28.040Z,1.30
2018-08-12T04:59:55.886Z,1.27
2018-08-12T05:02:23.714Z,1.10
2018-08-12T05:04:51.551Z,1.10
2018-08-12T05:07:19.391Z,1.60
2018-08-12T05:09:47.220Z,1.60
2018-08-12T05:12:15.042Z,0.93
2018-08-12T05:14:42.868Z,1.33
2018-08-12T05:17:10.712Z,1.10
2018-08-12T05:19:38.533Z,0.90
2018-08-12T05:22:06.371Z,1.30
2018-08-12T05:24:34.191Z,1.23
2018-08-12T05:27:02.035Z,1.40
2018-08-12T05:29:29.876Z,1.60
2018-08-12T05:31:57.693Z,1.20
2018-08-12T05:34:25.534Z,2.07
2018-08-12T05:36:53.346Z,1.33
2018-08-12T05:39:21.173Z,1.80
2018-08-12T05:41:49.017Z,1.17
2018-08-12T05:44:16.966Z,1.20
2018-08-12T05:46:44.797Z,1.00
2018-08-12T05:49:12.757Z,1.17
2018-08-12T05:51:40.602Z,1.20
2018-08-12T05:54:08.451Z,1.33
2018-08-12T05:56:36.312Z,1.30
2018-08-12T05:59:04.146Z,1.00
2018-08-12T06:01:32.000Z,1.40
2018-08-12T06:04:00.621Z,1.40
2018-08-12T06:06:28.512Z,1.53
2018-08-12T06:08:56.360Z,1.17
2018-08-12T06:11:24.166Z,1.40
2018-08-12T06:13:51.983Z,0.90
2018-08-12T06:16:19.830Z,1.07
2018-08-12T06:18:47.637Z,1.20
2018-08-12T06:21:15.470Z,1.50
2018-08-12T06:23:44.205Z,1.30
2018-08-12T06:26:12.282Z,1.30
2018-08-12T06:28:40.107Z,1.40
2018-08-12T06:31:07.958Z,1.23
2018-08-12T06:33:35.855Z,1.10
2018-08-12T06:36:03.673Z,1.13
2018-08-12T06:38:31.507Z,0.80
2018-08-12T06:40:59.340Z,1.03
2018-08-12T06:43:27.169Z,1.27
2018-08-12T06:45:54.989Z,1.20
2018-08-12T06:48:22.815Z,1.13
2018-08-12T06:50:50.637Z,1.00
2018-08-12T06:53:18.475Z,1.10
2018-08-12T06:55:46.295Z,1.20
2018-08-12T06:58:14.128Z,1.47
2018-08-12T07:00:41.959Z,1.33
2018-08-12T07:03:09.789Z,1.37
2018-08-12T07:05:37.616Z,1.00
2018-08-12T07:08:05.492Z,1.20
2018-08-12T07:10:33.311Z,1.00
2018-08-12T07:13:01.189Z,1.20
2018-08-12T07:15:29.009Z,1.43
2018-08-12T07:17:56.857Z,1.10
2018-08-12T07:20:24.686Z,1.57
2018-08-12T07:22:52.541Z,0.73
2018-08-12T07:25:20.364Z,0.90
2018-08-12T07:27:48.281Z,0.80
2018-08-12T07:30:16.384Z,1.27
2018-08-12T07:32:44.263Z,1.10
2018-08-12T07:35:12.141Z,1.30
2018-08-12T07:37:40.276Z,1.33
2018-08-12T07:40:11.399Z,0.80
2018-08-12T07:42:39.217Z,1.70
2018-08-12T07:45:07.962Z,0.77
2018-08-12T07:47:35.795Z,0.90
2018-08-12T07:50:04.163Z,0.97
2018-08-12T07:52:32.025Z,1.00
2018-08-12T07:54:59.902Z,1.07
2018-08-12T07:57:27.783Z,1.00
2018-08-12T07:59:55.611Z,1.00
2018-08-12T08:02:23.434Z,1.30
2018-08-12T08:04:51.288Z,0.93
2018-08-12T08:07:19.147Z,1.07
2018-08-12T08:09:46.991Z,0.80
2018-08-12T08:12:14.899Z,1.23
2018-08-12T08:14:42.837Z,0.77
2018-08-12T08:17:10.684Z,1.10
2018-08-12T08:19:38.699Z,1.10
2018-08-12T08:22:06.550Z,0.90
2018-08-12T08:24:34.460Z,1.50
2018-08-12T08:27:02.399Z,1.30
2018-08-12T08:29:30.245Z,0.90
2018-08-12T08:31:58.310Z,1.30
2018-08-12T08:34:25.978Z,1.10
2018-08-12T08:36:53.839Z,1.00
2018-08-12T08:39:21.666Z,1.10
2018-08-12T08:41:49.552Z,1.20
2018-08-12T08:44:17.439Z,1.40
2018-08-12T08:46:45.552Z,1.40
2018-08-12T08:49:13.442Z,1.00
2018-08-12T08:51:41.294Z,1.43
2018-08-12T08:54:09.164Z,1.47
2018-08-12T08:56:37.036Z,1.00
2018-08-12T08:59:04.928Z,1.37
2018-08-12T09:01:32.766Z,1.80
2018-08-12T09:04:00.615Z,1.47
2018-08-12T09:06:28.460Z,1.00
2018-08-12T09:08:57.679Z,1.80
2018-08-12T09:11:25.309Z,1.30
2018-08-12T09:13:53.158Z,1.87
2018-08-12T09:16:20.980Z,1.50
2018-08-12T09:18:48.818Z,1.50
2018-08-12T09:21:16.720Z,1.80
2018-08-12T09:23:44.648Z,1.60
2018-08-12T09:26:12.491Z,2.33
2018-08-12T09:28:40.392Z,1.77
2018-08-12T09:31:08.251Z,2.00
2018-08-12T09:33:36.112Z,2.20
2018-08-12T09:36:03.979Z,2.93
2018-08-12T09:38:31.841Z,2.00
2018-08-12T09:40:59.680Z,3.70
2018-08-12T09:43:27.538Z,2.20
2018-08-12T09:45:55.379Z,3.10
2018-08-12T09:48:23.236Z,2.83
2018-08-12T09:50:51.080Z,2.70
2018-08-12T09:53:18.923Z,2.73
2018-08-12T09:55:46.757Z,2.63
2018-08-12T09:58:14.585Z,2.40
2018-08-12T10:00:42.412Z,2.43
2018-08-12T10:03:10.357Z,2.37
2018-08-12T10:05:38.338Z,3.07
2018-08-12T10:08:06.170Z,2.40
2018-08-12T10:10:34.061Z,1.80
2018-08-12T10:13:01.916Z,2.40
2018-08-12T10:15:32.487Z,2.10
2018-08-12T10:18:06.923Z,1.80
2018-08-12T10:20:34.836Z,2.37
2018-08-12T10:23:03.458Z,1.90
2018-08-12T10:25:31.348Z,1.50
2018-08-12T10:27:59.278Z,1.60
2018-08-12T10:30:27.160Z,1.43
2018-08-12T10:32:54.998Z,1.40
2018-08-12T10:35:22.974Z,1.50
2018-08-12T10:37:50.927Z,1.70
2018-08-12T10:40:19.828Z,2.00
2018-08-12T10:42:48.459Z,1.20
2018-08-12T10:45:16.439Z,1.07
2018-08-12T10:47:44.423Z,1.23
2018-08-12T10:50:14.040Z,1.20
2018-08-12T10:52:42.988Z,1.63
2018-08-12T10:55:11.457Z,1.37
2018-08-12T10:57:39.456Z,1.13
2018-08-12T11:00:10.394Z,1.23
2018-08-12T11:02:41.333Z,1.00
2018-08-12T11:05:09.354Z,1.13
2018-08-12T11:07:37.191Z,1.00
2018-08-12T11:10:05.654Z,1.20
2018-08-12T11:12:33.651Z,1.27
2018-08-12T11:15:01.490Z,0.90
2018-08-12T11:17:29.330Z,1.10
2018-08-12T11:19:57.190Z,0.97
2018-08-12T11:22:25.058Z,1.07
2018-08-12T11:24:53.364Z,1.10
2018-08-12T11:27:22.107Z,1.10
2018-08-12T11:29:50.260Z,1.47
2018-08-12T11:32:18.133Z,1.30
2018-08-12T11:34:46.011Z,1.20
2018-08-12T11:37:14.081Z,1.20
2018-08-12T11:39:42.040Z,1.30
2018-08-12T11:42:09.869Z,1.00
2018-08-12T11:44:37.711Z,1.33
2018-08-12T11:47:05.783Z,1.20
2018-08-12T11:49:33.625Z,1.20
2018-08-12T11:52:01.456Z,0.90
2018-08-12T11:54:29.305Z,1.10
2018-08-12T11:56:57.965Z,0.90
2018-08-12T11:59:25.847Z,1.20
2018-08-12T12:01:53.683Z,1.00
2018-08-12T12:04:21.543Z,0.97
2018-08-12T12:06:49.415Z,1.03
2018-08-12T12:09:17.250Z,1.27
2018-08-12T12:11:45.107Z,0.60
2018-08-12T12:14:12.951Z,1.17
2018-08-12T12:16:40.899Z,1.40
2018-08-12T12:19:08.735Z,1.30
2018-08-12T12:21:36.567Z,1.27
2018-08-12T12:24:04.414Z,1.20
2018-08-12T12:26:32.265Z,1.07
2018-08-12T12:29:00.082Z,1.10
2018-08-12T12:31:27.969Z,1.10
2018-08-12T12:33:56.071Z,1.40
2018-08-12T12:36:24.598Z,1.00
2018-08-12T12:38:52.868Z,1.00
2018-08-12T12:41:21.231Z,1.30
2018-08-12T12:43:49.150Z,0.80
2018-08-12T12:46:16.986Z,1.03
2018-08-12T12:48:44.885Z,1.10
2018-08-12T12:51:12.911Z,0.97
2018-08-12T12:53:41.091Z,0.90
2018-08-12T12:56:09.094Z,1.47
2018-08-12T12:58:37.618Z,1.10
2018-08-12T13:01:06.373Z,0.90
2018-08-12T13:03:35.005Z,1.03
2018-08-12T13:06:03.013Z,0.60
2018-08-12T13:08:31.159Z,1.13
2018-08-12T13:10:59.832Z,1.13
2018-08-12T13:13:28.103Z,1.10
2018-08-12T13:15:56.050Z,0.80
2018-08-12T13:18:23.968Z,1.10
2018-08-12T13:20:52.872Z,1.10
2018-08-12T13:23:20.918Z,1.00
2018-08-12T16:45:46.577Z,0.93
2018-08-12T16:48:14.447Z,1.27
2018-08-12T16:50:42.284Z,1.23
2018-08-12T16:53:10.261Z,1.30
2018-08-12T16:55:38.138Z,1.17
2018-08-12T16:58:06.005Z,1.13
2018-08-12T17:00:34.152Z,1.10
2018-08-12T17:03:03.889Z,1.10
2018-08-12T17:05:31.785Z,1.03
2018-08-12T17:08:03.083Z,0.90
2018-08-12T17:10:34.504Z,1.00
2018-08-12T17:13:05.331Z,1.13
2018-08-12T17:15:33.380Z,0.83
2018-08-12T17:18:01.302Z,1.10
2018-08-12T17:20:29.240Z,1.47
2018-08-12T17:22:57.233Z,1.47
2018-08-12T17:25:26.904Z,1.10
2018-08-12T17:27:55.029Z,1.30
2018-08-12T17:30:22.888Z,1.10
2018-08-12T17:32:50.877Z,1.00
2018-08-12T17:35:18.773Z,0.70
2018-08-12T17:37:46.866Z,1.10
2018-08-12T17:40:17.748Z,1.10
2018-08-12T17:42:45.718Z,1.07
2018-08-12T17:45:13.861Z,1.30
2018-08-12T17:47:42.026Z,1.20
2018-08-12T17:50:11.338Z,1.00
2018-08-12T17:52:39.284Z,1.20
2018-08-12T17:55:07.634Z,0.97
2018-08-12T17:57:35.591Z,1.30
2018-08-12T18:00:04.807Z,1.20
2018-08-12T18:02:32.998Z,1.37
2018-08-12T18:05:00.894Z,1.00
2018-08-12T18:07:28.870Z,1.07
2018-08-12T18:09:57.590Z,1.10
2018-08-12T18:12:25.465Z,1.23
2018-08-12T18:14:53.344Z,1.00
2018-08-12T18:17:21.136Z,1.17
2018-08-12T18:19:48.969Z,1.10
2018-08-12T18:22:16.822Z,1.10
2018-08-12T18:24:44.637Z,1.47
2018-08-12T18:27:12.458Z,1.30
2018-08-12T18:29:40.273Z,1.03
2018-08-12T18:32:08.086Z,1.00
2018-08-12T18:34:36.350Z,1.20
2018-08-12T18:37:04.158Z,1.13
2018-08-12T18:39:32.511Z,1.10
2018-08-12T18:42:01.037Z,1.07
2018-08-12T18:44:28.984Z,1.20
2018-08-12T18:46:57.070Z,1.50
2018-08-12T18:49:25.281Z,1.33
2018-08-12T18:51:53.156Z,1.20
2018-08-12T18:54:21.089Z,1.30
2018-08-12T18:56:48.922Z,1.30
2018-08-12T18:59:16.805Z,1.30
2018-08-12T19:01:44.728Z,1.60
2018-08-12T19:04:15.496Z,1.60
2018-08-12T19:06:43.581Z,1.20
2018-08-12T19:09:11.628Z,1.30
2018-08-12T19:11:39.786Z,1.30
2018-08-12T19:14:08.111Z,1.13
2018-08-12T19:16:36.132Z,1.73
2018-08-12T19:19:04.151Z,1.50
2018-08-12T19:21:32.503Z,1.40
2018-08-12T19:24:00.401Z,1.60
2018-08-12T19:26:28.340Z,1.23
2018-08-12T19:28:56.475Z,1.60
2018-08-12T19:31:24.285Z,1.47
2018-08-12T19:33:52.438Z,1.70
2018-08-12T19:36:20.362Z,1.17
2018-08-12T19:38:48.213Z,1.43
2018-08-12T19:41:16.223Z,1.40
2018-08-12T19:43:44.074Z,1.53
2018-08-12T19:46:12.550Z,1.63
2018-08-12T19:48:46.826Z,2.10
2018-08-12T19:51:15.330Z,1.37
2018-08-12T19:53:43.145Z,1.60
2018-08-12T19:56:11.136Z,1.40
2018-08-12T19:58:39.071Z,1.80
2018-08-12T20:01:06.889Z,1.77
2018-08-12T20:03:34.745Z,1.60
2018-08-12T20:06:02.627Z,1.63
2018-08-12T20:08:30.553Z,1.70
2018-08-12T20:10:58.394Z,1.40
2018-08-12T20:13:26.314Z,1.57
2018-08-12T20:15:54.238Z,1.40
2018-08-12T20:18:22.093Z,1.90
2018-08-12T20:20:49.994Z,2.60
2018-08-12T20:23:17.810Z,2.17
2018-08-12T20:25:45.745Z,2.07
2018-08-12T20:28:13.651Z,1.80
2018-08-12T20:30:41.558Z,2.00
2018-08-12T20:33:09.373Z,1.60
2018-08-12T20:35:37.180Z,1.60
2018-08-12T20:38:05.086Z,1.80
2018-08-12T20:40:33.293Z,1.50
2018-08-12T20:43:01.126Z,1.83
2018-08-12T20:45:29.034Z,1.90
2018-08-12T20:47:56.833Z,1.80
2018-08-12T20:50:24.657Z,1.77
2018-08-12T20:52:59.235Z,2.10
2018-08-12T20:55:27.081Z,2.10
2018-08-12T20:57:55.018Z,1.47
2018-08-12T21:00:23.052Z,1.77
2018-08-12T21:02:51.147Z,1.90
2018-08-12T21:05:19.113Z,1.83
2018-08-12T21:07:47.027Z,2.03
2018-08-12T21:10:19.477Z,2.37
2018-08-12T21:12:47.333Z,2.00
2018-08-12T21:15:20.325Z,1.77
2018-08-12T21:17:48.150Z,2.07
2018-08-12T21:20:16.073Z,1.80
2018-08-12T21:22:44.057Z,1.70
2018-08-12T21:25:12.120Z,2.00
2018-08-12T21:27:40.924Z,1.67
2018-08-12T21:30:08.805Z,1.80
2018-08-12T21:32:36.651Z,1.90
2018-08-12T21:35:04.623Z,2.00
2018-08-12T21:37:32.513Z,2.10
2018-08-12T21:40:00.621Z,1.90
2018-08-12T21:42:28.570Z,1.97
2018-08-12T21:44:56.554Z,2.30
2018-08-12T21:47:24.432Z,2.50
2018-08-12T21:49:52.560Z,2.17
2018-08-12T21:52:20.750Z,1.83
2018-08-12T21:54:49.611Z,2.30
2018-08-12T21:57:17.469Z,2.10
2018-08-12T21:59:45.273Z,1.93
2018-08-12T22:02:13.150Z,2.10
2018-08-12T22:04:40.981Z,2.03
2018-08-12T22:07:09.011Z,2.13
2018-08-12T22:09:36.901Z,1.90
2018-08-12T22:12:05.024Z,2.30
2018-08-12T22:14:32.930Z,2.50
2018-08-12T22:17:01.009Z,2.57
2018-08-12T22:19:28.849Z,2.30
2018-08-12T22:21:56.657Z,2.00
2018-08-12T22:24:24.697Z,2.00
2018-08-12T22:26:52.648Z,2.10
2018-08-12T22:29:20.609Z,2.57
2018-08-12T22:31:49.242Z,2.57
2018-08-12T22:34:17.221Z,2.10
2018-08-12T22:36:45.133Z,2.70
2018-08-12T22:39:13.041Z,2.63
2018-08-12T22:41:40.857Z,2.37
2018-08-12T22:44:08.693Z,2.10
2018-08-12T22:46:36.506Z,2.20
2018-08-12T22:49:04.495Z,2.27
2018-08-12T22:51:32.297Z,2.60
2018-08-12T22:54:00.166Z,2.40
2018-08-12T22:56:27.973Z,2.50
2018-08-12T22:58:55.907Z,2.73
2018-08-12T23:01:23.701Z,2.70
2018-08-12T23:03:51.541Z,2.77
2018-08-12T23:06:19.512Z,2.97
2018-08-12T23:08:47.341Z,2.83
2018-08-12T23:11:15.150Z,3.07
2018-08-12T23:13:43.086Z,3.10
2018-08-12T23:16:23.874Z,2.73
2018-08-12T23:18:51.854Z,3.00
2018-08-12T23:21:20.313Z,3.13
2018-08-12T23:23:49.186Z,3.43
2018-08-12T23:26:19.101Z,3.03
2018-08-12T23:28:48.532Z,2.97
2018-08-12T23:31:16.515Z,3.17
2018-08-12T23:33:44.416Z,3.03
2018-08-12T23:36:12.306Z,3.10
2018-08-12T23:38:40.157Z,3.57
2018-08-12T23:41:08.886Z,2.93
2018-08-12T23:43:36.693Z,3.20
2018-08-12T23:46:04.498Z,3.20
2018-08-12T23:48:32.353Z,2.60
2018-08-12T23:51:00.846Z,3.10
2018-08-12T23:53:28.657Z,3.97
2018-08-12T23:55:56.469Z,3.20
2018-08-12T23:58:24.278Z,4.13
